sensor_id;sensor_type;location;lat;lon;timestamp;P1;durP1;ratioP1;P2;durP2;ratioP2
3523;SDS011;1776;53.330;11.498;2023-09-30T00:02:25;9.43;;;3.50;;
3523;SDS011;1776;53.330;11.498;2023-09-30T00:04:50;12.53;;;3.67;;
3523;SDS011;1776;53.330;11.498;2023-09-30T00:07:16;14.03;;;4.83;;
3523;SDS011;1776;53.330;11.498;2023-09-30T00:09:41;11.17;;;3.40;;
3523;SDS011;1776;53.330;11.498;2023-09-30T00:12:06;7.63;;;3.23;;
3523;SDS011;1776;53.330;11.498;2023-09-30T00:14:32;10.63;;;3.23;;
3523;SDS011;1776;53.330;11.498;2023-09-30T00:16:57;11.40;;;3.67;;
3523;SDS011;1776;53.330;11.498;2023-09-30T00:19:22;15.53;;;5.27;;
3523;SDS011;1776;53.330;11.498;2023-09-30T00:21:48;16.50;;;3.90;;
3523;SDS011;1776;53.330;11.498;2023-09-30T00:24:13;12.43;;;4.03;;
3523;SDS011;1776;53.330;11.498;2023-09-30T00:26:39;6.57;;;3.57;;
3523;SDS011;1776;53.330;11.498;2023-09-30T00:29:04;12.10;;;3.93;;
3523;SDS011;1776;53.330;11.498;2023-09-30T00:31:30;12.17;;;3.33;;
3523;SDS011;1776;53.330;11.498;2023-09-30T00:33:55;10.10;;;4.40;;
3523;SDS011;1776;53.330;11.498;2023-09-30T00:36:21;14.20;;;4.53;;
3523;SDS011;1776;53.330;11.498;2023-09-30T00:38:46;21.33;;;4.17;;
3523;SDS011;1776;53.330;11.498;2023-09-30T00:41:12;13.20;;;4.03;;
3523;SDS011;1776;53.330;11.498;2023-09-30T00:43:37;17.60;;;4.77;;
3523;SDS011;1776;53.330;11.498;2023-09-30T00:46:04;17.20;;;5.30;;
3523;SDS011;1776;53.330;11.498;2023-09-30T00:48:38;4.80;;;3.10;;
3523;SDS011;1776;53.330;11.498;2023-09-30T00:51:04;11.00;;;3.83;;
3523;SDS011;1776;53.330;11.498;2023-09-30T00:53:29;9.50;;;3.50;;
3523;SDS011;1776;53.330;11.498;2023-09-30T00:55:56;11.40;;;4.10;;
3523;SDS011;1776;53.330;11.498;2023-09-30T00:58:22;17.10;;;3.30;;
3523;SDS011;1776;53.330;11.498;2023-09-30T01:00:52;14.23;;;4.20;;
3523;SDS011;1776;53.330;11.498;2023-09-30T01:03:18;9.27;;;4.50;;
3523;SDS011;1776;53.330;11.498;2023-09-30T01:05:44;7.53;;;3.33;;
3523;SDS011;1776;53.330;11.498;2023-09-30T01:08:10;13.13;;;3.67;;
3523;SDS011;1776;53.330;11.498;2023-09-30T01:10:35;10.23;;;3.87;;
3523;SDS011;1776;53.330;11.498;2023-09-30T01:13:00;6.53;;;3.53;;
3523;SDS011;1776;53.330;11.498;2023-09-30T01:15:28;9.20;;;3.47;;
3523;SDS011;1776;53.330;11.498;2023-09-30T01:17:54;10.47;;;3.40;;
3523;SDS011;1776;53.330;11.498;2023-09-30T01:20:19;6.23;;;3.23;;
3523;SDS011;1776;53.330;11.498;2023-09-30T01:22:47;20.43;;;3.90;;
3523;SDS011;1776;53.330;11.498;2023-09-30T01:25:12;7.30;;;3.27;;
3523;SDS011;1776;53.330;11.498;2023-09-30T01:27:37;14.20;;;3.67;;
3523;SDS011;1776;53.330;11.498;2023-09-30T01:30:03;13.73;;;3.37;;
3523;SDS011;1776;53.330;11.498;2023-09-30T01:32:28;9.90;;;3.60;;
3523;SDS011;1776;53.330;11.498;2023-09-30T01:34:54;8.77;;;4.03;;
3523;SDS011;1776;53.330;11.498;2023-09-30T01:37:19;10.93;;;4.23;;
3523;SDS011;1776;53.330;11.498;2023-09-30T01:39:44;11.73;;;4.10;;
3523;SDS011;1776;53.330;11.498;2023-09-30T01:42:10;8.40;;;4.10;;
3523;SDS011;1776;53.330;11.498;2023-09-30T01:44:36;6.57;;;3.20;;
3523;SDS011;1776;53.330;11.498;2023-09-30T01:47:01;9.10;;;3.07;;
3523;SDS011;1776;53.330;11.498;2023-09-30T01:49:26;11.73;;;3.27;;
3523;SDS011;1776;53.330;11.498;2023-09-30T01:51:51;11.27;;;4.17;;
3523;SDS011;1776;53.330;11.498;2023-09-30T01:54:17;14.60;;;3.27;;
3523;SDS011;1776;53.330;11.498;2023-09-30T01:56:42;12.80;;;3.80;;
3523;SDS011;1776;53.330;11.498;2023-09-30T01:59:07;8.63;;;3.73;;
3523;SDS011;1776;53.330;11.498;2023-09-30T02:01:33;12.57;;;3.93;;
3523;SDS011;1776;53.330;11.498;2023-09-30T02:03:58;15.40;;;3.20;;
3523;SDS011;1776;53.330;11.498;2023-09-30T02:06:23;9.10;;;4.70;;
3523;SDS011;1776;53.330;11.498;2023-09-30T02:08:48;8.00;;;3.30;;
3523;SDS011;1776;53.330;11.498;2023-09-30T02:11:14;16.57;;;4.60;;
3523;SDS011;1776;53.330;11.498;2023-09-30T02:13:40;8.80;;;3.70;;
3523;SDS011;1776;53.330;11.498;2023-09-30T02:16:10;17.37;;;3.77;;
3523;SDS011;1776;53.330;11.498;2023-09-30T02:18:36;11.83;;;4.17;;
3523;SDS011;1776;53.330;11.498;2023-09-30T02:21:01;7.23;;;3.30;;
3523;SDS011;1776;53.330;11.498;2023-09-30T02:23:27;7.37;;;4.77;;
3523;SDS011;1776;53.330;11.498;2023-09-30T02:25:52;10.43;;;2.90;;
3523;SDS011;1776;53.330;11.498;2023-09-30T02:28:17;12.00;;;3.87;;
3523;SDS011;1776;53.330;11.498;2023-09-30T02:30:42;10.57;;;3.07;;
3523;SDS011;1776;53.330;11.498;2023-09-30T02:33:08;8.47;;;3.13;;
3523;SDS011;1776;53.330;11.498;2023-09-30T02:35:34;7.90;;;4.30;;
3523;SDS011;1776;53.330;11.498;2023-09-30T02:37:59;8.50;;;3.20;;
3523;SDS011;1776;53.330;11.498;2023-09-30T02:40:25;12.93;;;3.93;;
3523;SDS011;1776;53.330;11.498;2023-09-30T02:42:50;12.40;;;4.33;;
3523;SDS011;1776;53.330;11.498;2023-09-30T02:45:16;9.33;;;4.00;;
3523;SDS011;1776;53.330;11.498;2023-09-30T02:47:44;11.03;;;4.10;;
3523;SDS011;1776;53.330;11.498;2023-09-30T02:50:10;6.97;;;4.13;;
3523;SDS011;1776;53.330;11.498;2023-09-30T02:52:41;12.43;;;3.63;;
3523;SDS011;1776;53.330;11.498;2023-09-30T02:55:07;13.67;;;3.60;;
3523;SDS011;1776;53.330;11.498;2023-09-30T02:57:34;8.43;;;3.43;;
3523;SDS011;1776;53.330;11.498;2023-09-30T03:00:01;8.20;;;3.20;;
3523;SDS011;1776;53.330;11.498;2023-09-30T03:02:48;12.50;;;3.70;;
3523;SDS011;1776;53.330;11.498;2023-09-30T03:05:14;20.03;;;4.87;;
3523;SDS011;1776;53.330;11.498;2023-09-30T03:07:40;9.27;;;3.23;;
3523;SDS011;1776;53.330;11.498;2023-09-30T03:10:06;14.53;;;3.50;;
3523;SDS011;1776;53.330;11.498;2023-09-30T03:12:33;8.17;;;4.67;;
3523;SDS011;1776;53.330;11.498;2023-09-30T03:14:59;8.10;;;3.00;;
3523;SDS011;1776;53.330;11.498;2023-09-30T03:17:24;12.60;;;3.77;;
3523;SDS011;1776;53.330;11.498;2023-09-30T03:19:50;9.73;;;4.97;;
3523;SDS011;1776;53.330;11.498;2023-09-30T03:22:16;13.40;;;3.67;;
3523;SDS011;1776;53.330;11.498;2023-09-30T03:24:41;5.67;;;2.60;;
3523;SDS011;1776;53.330;11.498;2023-09-30T03:27:07;10.60;;;3.17;;
3523;SDS011;1776;53.330;11.498;2023-09-30T03:29:34;13.07;;;3.87;;
3523;SDS011;1776;53.330;11.498;2023-09-30T03:32:01;9.50;;;3.30;;
3523;SDS011;1776;53.330;11.498;2023-09-30T03:34:26;9.73;;;4.07;;
3523;SDS011;1776;53.330;11.498;2023-09-30T03:36:53;8.90;;;3.47;;
3523;SDS011;1776;53.330;11.498;2023-09-30T03:39:20;8.60;;;3.77;;
3523;SDS011;1776;53.330;11.498;2023-09-30T03:41:51;5.70;;;2.70;;
3523;SDS011;1776;53.330;11.498;2023-09-30T03:44:17;11.27;;;3.93;;
3523;SDS011;1776;53.330;11.498;2023-09-30T03:46:42;8.07;;;3.87;;
3523;SDS011;1776;53.330;11.498;2023-09-30T03:49:07;13.00;;;3.77;;
3523;SDS011;1776;53.330;11.498;2023-09-30T03:51:33;9.53;;;3.07;;
3523;SDS011;1776;53.330;11.498;2023-09-30T03:53:58;14.00;;;4.30;;
3523;SDS011;1776;53.330;11.498;2023-09-30T03:56:24;16.50;;;3.93;;
3523;SDS011;1776;53.330;11.498;2023-09-30T03:58:50;7.67;;;3.57;;
3523;SDS011;1776;53.330;11.498;2023-09-30T04:01:16;12.23;;;3.30;;
3523;SDS011;1776;53.330;11.498;2023-09-30T04:03:52;7.93;;;2.97;;
3523;SDS011;1776;53.330;11.498;2023-09-30T04:06:20;12.40;;;4.27;;
3523;SDS011;1776;53.330;11.498;2023-09-30T04:08:45;9.90;;;4.63;;
3523;SDS011;1776;53.330;11.498;2023-09-30T04:11:11;14.00;;;4.27;;
3523;SDS011;1776;53.330;11.498;2023-09-30T04:13:42;12.50;;;3.73;;
3523;SDS011;1776;53.330;11.498;2023-09-30T04:16:08;12.47;;;4.17;;
3523;SDS011;1776;53.330;11.498;2023-09-30T04:18:33;9.50;;;4.60;;
3523;SDS011;1776;53.330;11.498;2023-09-30T04:20:58;10.40;;;3.37;;
3523;SDS011;1776;53.330;11.498;2023-09-30T04:23:24;8.73;;;4.27;;
3523;SDS011;1776;53.330;11.498;2023-09-30T04:25:50;15.83;;;3.70;;
3523;SDS011;1776;53.330;11.498;2023-09-30T04:28:15;11.97;;;3.60;;
3523;SDS011;1776;53.330;11.498;2023-09-30T04:30:45;11.83;;;4.03;;
3523;SDS011;1776;53.330;11.498;2023-09-30T04:33:10;10.27;;;5.27;;
3523;SDS011;1776;53.330;11.498;2023-09-30T04:35:37;8.40;;;3.73;;
3523;SDS011;1776;53.330;11.498;2023-09-30T04:38:02;12.37;;;4.63;;
3523;SDS011;1776;53.330;11.498;2023-09-30T04:40:29;7.70;;;3.97;;
3523;SDS011;1776;53.330;11.498;2023-09-30T04:42:55;12.90;;;4.50;;
3523;SDS011;1776;53.330;11.498;2023-09-30T04:45:23;8.70;;;3.87;;
3523;SDS011;1776;53.330;11.498;2023-09-30T04:47:52;10.07;;;3.40;;
3523;SDS011;1776;53.330;11.498;2023-09-30T04:50:18;11.60;;;3.47;;
3523;SDS011;1776;53.330;11.498;2023-09-30T04:52:46;7.73;;;3.40;;
3523;SDS011;1776;53.330;11.498;2023-09-30T04:55:12;14.37;;;3.70;;
3523;SDS011;1776;53.330;11.498;2023-09-30T04:57:38;10.70;;;3.77;;
3523;SDS011;1776;53.330;11.498;2023-09-30T05:00:04;10.80;;;4.27;;
3523;SDS011;1776;53.330;11.498;2023-09-30T05:02:35;7.67;;;3.50;;
3523;SDS011;1776;53.330;11.498;2023-09-30T05:05:01;9.80;;;3.73;;
3523;SDS011;1776;53.330;11.498;2023-09-30T05:07:26;12.67;;;3.50;;
3523;SDS011;1776;53.330;11.498;2023-09-30T05:09:53;9.70;;;3.87;;
3523;SDS011;1776;53.330;11.498;2023-09-30T05:12:19;10.50;;;3.40;;
3523;SDS011;1776;53.330;11.498;2023-09-30T05:14:45;10.07;;;4.07;;
3523;SDS011;1776;53.330;11.498;2023-09-30T05:17:10;13.40;;;3.90;;
3523;SDS011;1776;53.330;11.498;2023-09-30T05:19:37;11.00;;;3.37;;
3523;SDS011;1776;53.330;11.498;2023-09-30T05:22:02;12.53;;;3.73;;
3523;SDS011;1776;53.330;11.498;2023-09-30T05:24:28;12.13;;;3.77;;
3523;SDS011;1776;53.330;11.498;2023-09-30T05:26:53;15.93;;;4.03;;
3523;SDS011;1776;53.330;11.498;2023-09-30T05:29:18;11.67;;;3.20;;
3523;SDS011;1776;53.330;11.498;2023-09-30T05:31:45;9.90;;;4.00;;
3523;SDS011;1776;53.330;11.498;2023-09-30T05:34:10;14.43;;;5.60;;
3523;SDS011;1776;53.330;11.498;2023-09-30T05:36:36;12.27;;;3.63;;
3523;SDS011;1776;53.330;11.498;2023-09-30T05:39:01;10.17;;;4.00;;
3523;SDS011;1776;53.330;11.498;2023-09-30T05:41:28;12.40;;;3.93;;
3523;SDS011;1776;53.330;11.498;2023-09-30T05:43:53;13.03;;;4.00;;
3523;SDS011;1776;53.330;11.498;2023-09-30T05:46:18;14.80;;;6.23;;
3523;SDS011;1776;53.330;11.498;2023-09-30T05:48:43;14.23;;;4.47;;
3523;SDS011;1776;53.330;11.498;2023-09-30T05:51:09;9.87;;;4.17;;
3523;SDS011;1776;53.330;11.498;2023-09-30T05:53:34;8.33;;;4.07;;
3523;SDS011;1776;53.330;11.498;2023-09-30T05:56:01;11.33;;;4.47;;
3523;SDS011;1776;53.330;11.498;2023-09-30T05:58:26;10.00;;;4.67;;
3523;SDS011;1776;53.330;11.498;2023-09-30T06:00:52;12.83;;;3.80;;
3523;SDS011;1776;53.330;11.498;2023-09-30T06:03:18;12.20;;;4.83;;
3523;SDS011;1776;53.330;11.498;2023-09-30T06:05:46;14.53;;;4.57;;
3523;SDS011;1776;53.330;11.498;2023-09-30T06:08:12;17.13;;;5.23;;
3523;SDS011;1776;53.330;11.498;2023-09-30T06:10:39;16.43;;;3.90;;
3523;SDS011;1776;53.330;11.498;2023-09-30T06:13:08;15.27;;;5.43;;
3523;SDS011;1776;53.330;11.498;2023-09-30T06:15:40;10.57;;;4.17;;
3523;SDS011;1776;53.330;11.498;2023-09-30T06:18:07;11.83;;;4.30;;
3523;SDS011;1776;53.330;11.498;2023-09-30T06:20:32;11.33;;;4.00;;
3523;SDS011;1776;53.330;11.498;2023-09-30T06:22:58;13.97;;;5.00;;
3523;SDS011;1776;53.330;11.498;2023-09-30T06:25:25;9.93;;;4.20;;
3523;SDS011;1776;53.330;11.498;2023-09-30T06:27:52;8.63;;;4.37;;
3523;SDS011;1776;53.330;11.498;2023-09-30T06:30:18;11.50;;;4.60;;
3523;SDS011;1776;53.330;11.498;2023-09-30T06:32:45;16.53;;;4.90;;
3523;SDS011;1776;53.330;11.498;2023-09-30T06:35:10;20.07;;;4.50;;
3523;SDS011;1776;53.330;11.498;2023-09-30T06:37:36;9.73;;;3.90;;
3523;SDS011;1776;53.330;11.498;2023-09-30T06:40:03;10.70;;;5.07;;
3523;SDS011;1776;53.330;11.498;2023-09-30T06:42:30;12.20;;;3.70;;
3523;SDS011;1776;53.330;11.498;2023-09-30T06:44:55;12.70;;;4.67;;
3523;SDS011;1776;53.330;11.498;2023-09-30T06:47:21;12.47;;;5.03;;
3523;SDS011;1776;53.330;11.498;2023-09-30T06:49:47;18.37;;;4.47;;
3523;SDS011;1776;53.330;11.498;2023-09-30T06:52:12;10.60;;;4.30;;
3523;SDS011;1776;53.330;11.498;2023-09-30T06:54:38;11.67;;;5.10;;
3523;SDS011;1776;53.330;11.498;2023-09-30T06:57:03;15.63;;;5.40;;
3523;SDS011;1776;53.330;11.498;2023-09-30T06:59:29;11.20;;;3.80;;
3523;SDS011;1776;53.330;11.498;2023-09-30T07:01:55;18.97;;;5.73;;
3523;SDS011;1776;53.330;11.498;2023-09-30T07:04:20;12.83;;;4.00;;
3523;SDS011;1776;53.330;11.498;2023-09-30T07:06:46;13.60;;;4.50;;
3523;SDS011;1776;53.330;11.498;2023-09-30T07:09:12;14.50;;;5.10;;
3523;SDS011;1776;53.330;11.498;2023-09-30T07:11:37;10.90;;;4.50;;
3523;SDS011;1776;53.330;11.498;2023-09-30T07:14:02;18.27;;;5.40;;
3523;SDS011;1776;53.330;11.498;2023-09-30T07:16:27;15.53;;;4.87;;
3523;SDS011;1776;53.330;11.498;2023-09-30T07:18:53;10.63;;;4.30;;
3523;SDS011;1776;53.330;11.498;2023-09-30T07:21:18;9.60;;;4.67;;
3523;SDS011;1776;53.330;11.498;2023-09-30T07:23:44;16.17;;;5.00;;
3523;SDS011;1776;53.330;11.498;2023-09-30T07:26:09;11.40;;;5.10;;
3523;SDS011;1776;53.330;11.498;2023-09-30T07:28:34;8.63;;;4.30;;
3523;SDS011;1776;53.330;11.498;2023-09-30T07:31:00;19.60;;;4.93;;
3523;SDS011;1776;53.330;11.498;2023-09-30T07:33:25;15.27;;;3.90;;
3523;SDS011;1776;53.330;11.498;2023-09-30T07:35:51;14.87;;;4.23;;
3523;SDS011;1776;53.330;11.498;2023-09-30T07:38:16;8.00;;;3.97;;
3523;SDS011;1776;53.330;11.498;2023-09-30T07:40:42;12.90;;;4.73;;
3523;SDS011;1776;53.330;11.498;2023-09-30T07:43:08;10.53;;;4.30;;
3523;SDS011;1776;53.330;11.498;2023-09-30T07:45:33;14.13;;;3.30;;
3523;SDS011;1776;53.330;11.498;2023-09-30T07:47:59;10.10;;;4.30;;
3523;SDS011;1776;53.330;11.498;2023-09-30T07:50:24;6.73;;;3.67;;
3523;SDS011;1776;53.330;11.498;2023-09-30T07:52:50;20.40;;;4.77;;
3523;SDS011;1776;53.330;11.498;2023-09-30T07:55:15;8.23;;;3.33;;
3523;SDS011;1776;53.330;11.498;2023-09-30T07:57:41;11.80;;;4.00;;
3523;SDS011;1776;53.330;11.498;2023-09-30T08:00:09;10.73;;;4.30;;
3523;SDS011;1776;53.330;11.498;2023-09-30T08:02:39;10.10;;;3.90;;
3523;SDS011;1776;53.330;11.498;2023-09-30T08:05:05;10.43;;;4.93;;
3523;SDS011;1776;53.330;11.498;2023-09-30T08:07:31;12.67;;;4.63;;
3523;SDS011;1776;53.330;11.498;2023-09-30T08:09:58;11.17;;;4.43;;
3523;SDS011;1776;53.330;11.498;2023-09-30T08:12:23;10.83;;;4.07;;
3523;SDS011;1776;53.330;11.498;2023-09-30T08:14:49;12.33;;;4.20;;
3523;SDS011;1776;53.330;11.498;2023-09-30T08:17:16;10.90;;;4.43;;
3523;SDS011;1776;53.330;11.498;2023-09-30T08:19:42;13.20;;;4.30;;
3523;SDS011;1776;53.330;11.498;2023-09-30T08:22:07;13.53;;;4.03;;
3523;SDS011;1776;53.330;11.498;2023-09-30T08:24:34;16.40;;;3.43;;
3523;SDS011;1776;53.330;11.498;2023-09-30T08:27:00;16.67;;;4.57;;
3523;SDS011;1776;53.330;11.498;2023-09-30T08:29:25;16.03;;;3.60;;
3523;SDS011;1776;53.330;11.498;2023-09-30T08:31:51;12.37;;;3.80;;
3523;SDS011;1776;53.330;11.498;2023-09-30T08:34:16;11.90;;;3.77;;
3523;SDS011;1776;53.330;11.498;2023-09-30T08:36:42;12.67;;;3.67;;
3523;SDS011;1776;53.330;11.498;2023-09-30T08:39:08;11.83;;;3.50;;
3523;SDS011;1776;53.330;11.498;2023-09-30T08:41:35;11.07;;;3.30;;
3523;SDS011;1776;53.330;11.498;2023-09-30T08:44:01;11.87;;;4.83;;
3523;SDS011;1776;53.330;11.498;2023-09-30T08:46:30;15.70;;;3.13;;
3523;SDS011;1776;53.330;11.498;2023-09-30T08:48:57;15.83;;;3.60;;
3523;SDS011;1776;53.330;11.498;2023-09-30T08:51:24;10.27;;;4.10;;
3523;SDS011;1776;53.330;11.498;2023-09-30T08:53:50;13.87;;;3.33;;
3523;SDS011;1776;53.330;11.498;2023-09-30T08:56:18;9.27;;;2.87;;
3523;SDS011;1776;53.330;11.498;2023-09-30T08:58:45;7.70;;;3.00;;
3523;SDS011;1776;53.330;11.498;2023-09-30T09:01:10;16.40;;;3.10;;
3523;SDS011;1776;53.330;11.498;2023-09-30T09:03:36;19.17;;;3.03;;
3523;SDS011;1776;53.330;11.498;2023-09-30T09:06:01;18.30;;;4.23;;
3523;SDS011;1776;53.330;11.498;2023-09-30T09:08:27;17.17;;;3.90;;
3523;SDS011;1776;53.330;11.498;2023-09-30T09:10:56;14.23;;;3.30;;
3523;SDS011;1776;53.330;11.498;2023-09-30T09:13:23;9.37;;;3.00;;
3523;SDS011;1776;53.330;11.498;2023-09-30T09:15:50;8.57;;;3.57;;
3523;SDS011;1776;53.330;11.498;2023-09-30T09:18:33;12.20;;;3.20;;
3523;SDS011;1776;53.330;11.498;2023-09-30T09:23:46;10.53;;;3.60;;
3523;SDS011;1776;53.330;11.498;2023-09-30T09:26:33;10.33;;;3.20;;
3523;SDS011;1776;53.330;11.498;2023-09-30T09:29:01;15.30;;;3.53;;
3523;SDS011;1776;53.330;11.498;2023-09-30T09:31:35;9.80;;;2.50;;
3523;SDS011;1776;53.330;11.498;2023-09-30T09:34:04;7.03;;;3.17;;
3523;SDS011;1776;53.330;11.498;2023-09-30T09:36:42;13.53;;;4.37;;
3523;SDS011;1776;53.330;11.498;2023-09-30T09:39:09;9.33;;;3.10;;
3523;SDS011;1776;53.330;11.498;2023-09-30T09:41:51;10.33;;;3.43;;
3523;SDS011;1776;53.330;11.498;2023-09-30T09:44:20;5.13;;;3.20;;
3523;SDS011;1776;53.330;11.498;2023-09-30T09:46:47;11.43;;;3.63;;
3523;SDS011;1776;53.330;11.498;2023-09-30T09:49:15;11.57;;;3.03;;
3523;SDS011;1776;53.330;11.498;2023-09-30T09:51:48;9.70;;;2.57;;
3523;SDS011;1776;53.330;11.498;2023-09-30T09:54:14;13.83;;;2.70;;
3523;SDS011;1776;53.330;11.498;2023-09-30T09:56:41;8.30;;;2.30;;
3523;SDS011;1776;53.330;11.498;2023-09-30T09:59:08;6.53;;;2.83;;
3523;SDS011;1776;53.330;11.498;2023-09-30T10:01:36;9.03;;;3.80;;
3523;SDS011;1776;53.330;11.498;2023-09-30T10:04:01;11.00;;;2.80;;
3523;SDS011;1776;53.330;11.498;2023-09-30T10:06:27;9.20;;;3.00;;
3523;SDS011;1776;53.330;11.498;2023-09-30T10:08:53;4.30;;;2.73;;
3523;SDS011;1776;53.330;11.498;2023-09-30T10:11:22;11.80;;;2.20;;
3523;SDS011;1776;53.330;11.498;2023-09-30T10:13:49;15.17;;;3.50;;
3523;SDS011;1776;53.330;11.498;2023-09-30T10:16:55;10.50;;;2.57;;
3523;SDS011;1776;53.330;11.498;2023-09-30T10:19:14;13.40;;;2.50;;
3523;SDS011;1776;53.330;11.498;2023-09-30T10:22:19;7.23;;;2.23;;
3523;SDS011;1776;53.330;11.498;2023-09-30T10:24:44;7.83;;;2.40;;
3523;SDS011;1776;53.330;11.498;2023-09-30T10:29:46;8.90;;;2.90;;
3523;SDS011;1776;53.330;11.498;2023-09-30T10:32:12;7.77;;;2.20;;
3523;SDS011;1776;53.330;11.498;2023-09-30T10:34:38;8.37;;;2.33;;
3523;SDS011;1776;53.330;11.498;2023-09-30T10:37:19;13.20;;;2.77;;
3523;SDS011;1776;53.330;11.498;2023-09-30T10:39:52;10.97;;;2.93;;
3523;SDS011;1776;53.330;11.498;2023-09-30T10:48:53;10.97;;;3.13;;
3523;SDS011;1776;53.330;11.498;2023-09-30T10:50:57;6.77;;;1.73;;
3523;SDS011;1776;53.330;11.498;2023-09-30T10:53:27;3.10;;;1.70;;
3523;SDS011;1776;53.330;11.498;2023-09-30T10:55:57;7.93;;;2.30;;
3523;SDS011;1776;53.330;11.498;2023-09-30T11:01:05;5.57;;;2.23;;
3523;SDS011;1776;53.330;11.498;2023-09-30T11:03:31;9.33;;;2.40;;
3523;SDS011;1776;53.330;11.498;2023-09-30T11:05:56;7.30;;;2.10;;
3523;SDS011;1776;53.330;11.498;2023-09-30T11:08:21;8.77;;;1.87;;
3523;SDS011;1776;53.330;11.498;2023-09-30T11:10:49;12.53;;;3.10;;
3523;SDS011;1776;53.330;11.498;2023-09-30T11:13:15;8.07;;;2.80;;
3523;SDS011;1776;53.330;11.498;2023-09-30T11:15:41;11.33;;;3.13;;
3523;SDS011;1776;53.330;11.498;2023-09-30T11:18:16;7.30;;;2.10;;
3523;SDS011;1776;53.330;11.498;2023-09-30T11:20:43;14.70;;;3.40;;
3523;SDS011;1776;53.330;11.498;2023-09-30T11:23:09;5.80;;;1.87;;
3523;SDS011;1776;53.330;11.498;2023-09-30T11:25:37;9.13;;;2.30;;
3523;SDS011;1776;53.330;11.498;2023-09-30T11:28:17;7.83;;;1.93;;
3523;SDS011;1776;53.330;11.498;2023-09-30T11:33:49;10.63;;;2.33;;
3523;SDS011;1776;53.330;11.498;2023-09-30T11:36:16;9.30;;;2.23;;
3523;SDS011;1776;53.330;11.498;2023-09-30T11:38:46;7.70;;;1.97;;
3523;SDS011;1776;53.330;11.498;2023-09-30T11:41:13;8.33;;;3.07;;
3523;SDS011;1776;53.330;11.498;2023-09-30T11:43:39;4.53;;;2.43;;
3523;SDS011;1776;53.330;11.498;2023-09-30T11:46:24;4.17;;;2.00;;
3523;SDS011;1776;53.330;11.498;2023-09-30T11:49:01;5.87;;;2.00;;
3523;SDS011;1776;53.330;11.498;2023-09-30T11:51:28;7.20;;;2.00;;
3523;SDS011;1776;53.330;11.498;2023-09-30T11:53:54;5.80;;;2.17;;
3523;SDS011;1776;53.330;11.498;2023-09-30T11:56:21;9.07;;;2.30;;
3523;SDS011;1776;53.330;11.498;2023-09-30T11:58:52;4.57;;;2.03;;
3523;SDS011;1776;53.330;11.498;2023-09-30T12:01:18;4.20;;;1.90;;
3523;SDS011;1776;53.330;11.498;2023-09-30T12:03:43;2.77;;;1.80;;
3523;SDS011;1776;53.330;11.498;2023-09-30T12:06:09;3.90;;;1.67;;
3523;SDS011;1776;53.330;11.498;2023-09-30T12:08:39;13.27;;;2.40;;
3523;SDS011;1776;53.330;11.498;2023-09-30T12:11:04;2.93;;;1.27;;
3523;SDS011;1776;53.330;11.498;2023-09-30T12:13:30;3.20;;;1.50;;
3523;SDS011;1776;53.330;11.498;2023-09-30T12:15:55;6.20;;;1.97;;
3523;SDS011;1776;53.330;11.498;2023-09-30T12:18:22;10.17;;;1.70;;
3523;SDS011;1776;53.330;11.498;2023-09-30T12:20:49;8.27;;;2.23;;
3523;SDS011;1776;53.330;11.498;2023-09-30T12:23:16;6.27;;;1.40;;
3523;SDS011;1776;53.330;11.498;2023-09-30T12:25:42;17.80;;;2.40;;
3523;SDS011;1776;53.330;11.498;2023-09-30T12:28:08;8.70;;;2.17;;
3523;SDS011;1776;53.330;11.498;2023-09-30T12:30:34;5.40;;;1.80;;
3523;SDS011;1776;53.330;11.498;2023-09-30T12:32:59;6.73;;;2.10;;
3523;SDS011;1776;53.330;11.498;2023-09-30T12:35:24;5.13;;;1.83;;
3523;SDS011;1776;53.330;11.498;2023-09-30T12:37:50;3.10;;;1.40;;
3523;SDS011;1776;53.330;11.498;2023-09-30T12:40:15;8.57;;;1.90;;
3523;SDS011;1776;53.330;11.498;2023-09-30T12:42:42;6.33;;;2.13;;
3523;SDS011;1776;53.330;11.498;2023-09-30T12:45:08;10.17;;;1.93;;
3523;SDS011;1776;53.330;11.498;2023-09-30T12:47:34;4.90;;;2.00;;
3523;SDS011;1776;53.330;11.498;2023-09-30T12:49:59;4.03;;;1.80;;
3523;SDS011;1776;53.330;11.498;2023-09-30T12:52:24;3.20;;;1.83;;
3523;SDS011;1776;53.330;11.498;2023-09-30T12:54:50;6.40;;;2.43;;
3523;SDS011;1776;53.330;11.498;2023-09-30T12:57:16;3.87;;;1.80;;
3523;SDS011;1776;53.330;11.498;2023-09-30T12:59:43;9.07;;;1.80;;
3523;SDS011;1776;53.330;11.498;2023-09-30T13:02:11;5.63;;;1.77;;
3523;SDS011;1776;53.330;11.498;2023-09-30T13:04:37;6.20;;;1.83;;
3523;SDS011;1776;53.330;11.498;2023-09-30T13:07:07;3.43;;;1.83;;
3523;SDS011;1776;53.330;11.498;2023-09-30T13:09:33;5.80;;;1.60;;
3523;SDS011;1776;53.330;11.498;2023-09-30T13:11:58;6.40;;;1.90;;
3523;SDS011;1776;53.330;11.498;2023-09-30T13:14:25;7.33;;;1.60;;
3523;SDS011;1776;53.330;11.498;2023-09-30T13:16:53;5.00;;;1.63;;
3523;SDS011;1776;53.330;11.498;2023-09-30T13:19:18;6.10;;;2.13;;
3523;SDS011;1776;53.330;11.498;2023-09-30T13:21:46;11.70;;;2.50;;
3523;SDS011;1776;53.330;11.498;2023-09-30T13:24:12;5.20;;;1.43;;
3523;SDS011;1776;53.330;11.498;2023-09-30T13:26:37;8.30;;;2.37;;
3523;SDS011;1776;53.330;11.498;2023-09-30T13:29:02;5.13;;;2.57;;
3523;SDS011;1776;53.330;11.498;2023-09-30T13:31:30;7.30;;;2.10;;
3523;SDS011;1776;53.330;11.498;2023-09-30T13:33:55;9.47;;;2.17;;
3523;SDS011;1776;53.330;11.498;2023-09-30T13:36:21;6.20;;;2.20;;
3523;SDS011;1776;53.330;11.498;2023-09-30T13:38:46;8.47;;;1.90;;
3523;SDS011;1776;53.330;11.498;2023-09-30T13:41:11;8.10;;;2.50;;
3523;SDS011;1776;53.330;11.498;2023-09-30T13:43:37;4.13;;;1.83;;
3523;SDS011;1776;53.330;11.498;2023-09-30T13:46:04;3.60;;;1.47;;
3523;SDS011;1776;53.330;11.498;2023-09-30T13:48:31;4.87;;;1.97;;
3523;SDS011;1776;53.330;11.498;2023-09-30T13:51:03;5.10;;;1.27;;
3523;SDS011;1776;53.330;11.498;2023-09-30T13:53:32;6.60;;;1.83;;
3523;SDS011;1776;53.330;11.498;2023-09-30T13:55:57;4.63;;;1.87;;
3523;SDS011;1776;53.330;11.498;2023-09-30T13:58:22;6.53;;;2.03;;
3523;SDS011;1776;53.330;11.498;2023-09-30T14:00:48;5.97;;;2.90;;
3523;SDS011;1776;53.330;11.498;2023-09-30T14:03:14;4.03;;;1.80;;
3523;SDS011;1776;53.330;11.498;2023-09-30T14:05:39;4.33;;;2.20;;
3523;SDS011;1776;53.330;11.498;2023-09-30T14:08:05;7.67;;;2.70;;
3523;SDS011;1776;53.330;11.498;2023-09-30T14:10:32;6.13;;;2.43;;
3523;SDS011;1776;53.330;11.498;2023-09-30T14:12:58;8.00;;;2.40;;
3523;SDS011;1776;53.330;11.498;2023-09-30T14:15:23;6.67;;;2.03;;
3523;SDS011;1776;53.330;11.498;2023-09-30T14:17:48;5.23;;;1.70;;
3523;SDS011;1776;53.330;11.498;2023-09-30T14:20:14;3.63;;;2.10;;
3523;SDS011;1776;53.330;11.498;2023-09-30T14:22:39;6.80;;;2.10;;
3523;SDS011;1776;53.330;11.498;2023-09-30T14:25:04;6.00;;;2.20;;
3523;SDS011;1776;53.330;11.498;2023-09-30T14:27:30;4.60;;;1.83;;
3523;SDS011;1776;53.330;11.498;2023-09-30T14:29:56;3.97;;;2.37;;
3523;SDS011;1776;53.330;11.498;2023-09-30T14:32:21;5.23;;;1.97;;
3523;SDS011;1776;53.330;11.498;2023-09-30T14:34:48;7.70;;;1.60;;
3523;SDS011;1776;53.330;11.498;2023-09-30T14:37:13;4.67;;;1.60;;
3523;SDS011;1776;53.330;11.498;2023-09-30T14:39:38;4.70;;;1.60;;
3523;SDS011;1776;53.330;11.498;2023-09-30T14:42:04;4.30;;;1.90;;
3523;SDS011;1776;53.330;11.498;2023-09-30T14:44:29;5.33;;;1.40;;
3523;SDS011;1776;53.330;11.498;2023-09-30T14:46:54;8.03;;;1.70;;
3523;SDS011;1776;53.330;11.498;2023-09-30T14:49:21;10.50;;;2.10;;
3523;SDS011;1776;53.330;11.498;2023-09-30T14:51:46;8.53;;;1.40;;
3523;SDS011;1776;53.330;11.498;2023-09-30T14:54:13;4.07;;;1.70;;
3523;SDS011;1776;53.330;11.498;2023-09-30T14:56:38;4.73;;;1.90;;
3523;SDS011;1776;53.330;11.498;2023-09-30T14:59:03;7.90;;;1.90;;
3523;SDS011;1776;53.330;11.498;2023-09-30T15:01:30;5.30;;;1.97;;
3523;SDS011;1776;53.330;11.498;2023-09-30T15:03:55;2.67;;;1.80;;
3523;SDS011;1776;53.330;11.498;2023-09-30T15:06:21;4.37;;;1.50;;
3523;SDS011;1776;53.330;11.498;2023-09-30T15:08:49;3.00;;;1.33;;
3523;SDS011;1776;53.330;11.498;2023-09-30T15:11:14;4.33;;;1.40;;